createdAt,value
2018-08-28T00:00:15.271Z,1001.0
2018-08-28T00:03:15.609Z,1001.1
2018-08-28T00:06:15.920Z,1001.1
2018-08-28T00:09:15.362Z,1001.1
2018-08-28T00:12:15.813Z,1001.1
2018-08-28T00:15:15.532Z,1001.1
2018-08-28T00:18:14.975Z,1001.1
2018-08-28T00:21:15.392Z,1001.2
2018-08-28T00:24:15.764Z,1001.1
2018-08-28T00:27:15.190Z,1001.1
2018-08-28T00:30:15.469Z,1001.1
2018-08-28T00:33:15.780Z,1001.2
2018-08-28T00:36:15.063Z,1001.2
2018-08-28T00:39:15.311Z,1001.3
2018-08-28T00:42:15.566Z,1001.3
2018-08-28T00:45:15.779Z,1001.3
2018-08-28T00:48:15.511Z,1001.3
2018-08-28T00:51:15.226Z,1001.3
2018-08-28T00:54:15.711Z,1001.3
2018-08-28T00:57:15.404Z,1001.4
2018-08-28T01:00:15.780Z,1001.4
2018-08-28T01:03:15.066Z,1001.4
2018-08-28T01:06:15.312Z,1001.4
2018-08-28T01:09:15.785Z,1001.4
2018-08-28T01:12:22.278Z,1001.5
2018-08-28T01:15:15.488Z,1001.4
2018-08-28T01:18:15.646Z,1001.4
2018-08-28T01:21:15.769Z,1001.5
2018-08-28T01:24:15.256Z,1001.5
2018-08-28T01:27:15.489Z,1001.5
2018-08-28T01:30:15.920Z,1001.5
2018-08-28T01:33:15.235Z,1001.5
2018-08-28T01:36:15.573Z,1001.5
2018-08-28T01:39:15.775Z,1001.5
2018-08-28T01:42:15.210Z,1001.5
2018-08-28T01:45:15.249Z,1001.5
2018-08-28T01:48:15.675Z,1001.6
2018-08-28T01:51:15.907Z,1001.5
2018-08-28T01:54:15.269Z,1001.5
2018-08-28T01:57:15.661Z,1001.6
2018-08-28T02:00:15.056Z,1001.6
2018-08-28T02:03:15.395Z,1001.6
2018-08-28T02:06:15.611Z,1001.6
2018-08-28T02:09:15.887Z,1001.6
2018-08-28T02:12:15.179Z,1001.6
2018-08-28T02:15:15.551Z,1001.7
2018-08-28T02:18:15.862Z,1001.7
2018-08-28T02:21:15.238Z,1001.7
2018-08-28T02:24:15.655Z,1001.6
2018-08-28T02:27:15.029Z,1001.7
2018-08-28T02:30:15.423Z,1001.7
2018-08-28T02:33:15.662Z,1001.6
2018-08-28T02:36:15.312Z,1001.7
2018-08-28T02:39:15.846Z,1001.7
2018-08-28T02:42:15.175Z,1001.7
2018-08-28T02:45:15.546Z,1001.7
2018-08-28T02:48:15.843Z,1001.7
2018-08-28T02:51:15.284Z,1001.8
2018-08-28T02:54:15.638Z,1001.7
2018-08-28T02:57:15.877Z,1001.7
2018-08-28T03:00:15.475Z,1001.7
2018-08-28T03:03:16.027Z,1001.7
2018-08-28T03:06:15.441Z,1001.7
2018-08-28T03:09:15.089Z,1001.8
2018-08-28T03:12:15.376Z,1001.8
2018-08-28T03:15:15.785Z,1001.7
2018-08-28T03:18:15.240Z,1001.8
2018-08-28T03:21:15.623Z,1001.8
2018-08-28T03:24:15.118Z,1001.8
2018-08-28T03:27:15.572Z,1001.8
2018-08-28T03:30:15.008Z,1001.8
2018-08-28T03:33:15.312Z,1001.8
2018-08-28T03:36:15.589Z,1001.8
2018-08-28T03:39:15.908Z,1001.8
2018-08-28T03:42:15.326Z,1001.8
2018-08-28T03:45:15.779Z,1001.8
2018-08-28T03:48:15.202Z,1001.9
2018-08-28T03:51:15.864Z,1001.8
2018-08-28T03:54:15.293Z,1001.9
2018-08-28T03:57:14.978Z,1001.9
2018-08-28T04:00:15.407Z,1001.9
2018-08-28T04:03:15.697Z,1001.9
2018-08-28T04:06:15.065Z,1001.9
2018-08-28T04:09:20.583Z,1001.9
2018-08-28T04:12:14.968Z,1001.9
2018-08-28T04:15:15.284Z,1001.9
2018-08-28T04:18:15.796Z,1001.9
2018-08-28T04:21:15.491Z,1002.0
2018-08-28T04:24:15.723Z,1002.0
2018-08-28T04:27:15.565Z,1002.0
2018-08-28T04:30:15.815Z,1002.0
2018-08-28T04:33:15.234Z,1002.1
2018-08-28T04:36:15.488Z,1002.1
2018-08-28T04:39:15.919Z,1002.1
2018-08-28T04:42:15.401Z,1002.2
2018-08-28T04:45:15.793Z,1002.2
2018-08-28T04:48:15.243Z,1002.2
2018-08-28T04:51:15.764Z,1002.2
2018-08-28T04:54:15.903Z,1002.3
2018-08-28T04:57:15.356Z,1002.3
2018-08-28T05:00:19.816Z,1002.3
2018-08-28T05:03:15.228Z,1002.3
2018-08-28T05:06:15.737Z,1002.3
2018-08-28T05:09:15.102Z,1002.3
2018-08-28T05:12:15.514Z,1002.3
2018-08-28T05:15:15.855Z,1002.3
2018-08-28T05:18:15.308Z,1002.3
2018-08-28T05:21:15.687Z,1002.4
2018-08-28T05:24:15.105Z,1002.4
2018-08-28T05:27:15.625Z,1002.4
2018-08-28T05:30:14.983Z,1002.4
2018-08-28T05:33:15.863Z,1002.4
2018-08-28T05:36:15.352Z,1002.4
2018-08-28T05:39:15.786Z,1002.4
2018-08-28T05:42:15.045Z,1002.5
2018-08-28T05:45:15.350Z,1002.5
2018-08-28T05:48:15.555Z,1002.5
2018-08-28T05:51:15.795Z,1002.5
2018-08-28T05:54:15.083Z,1002.5
2018-08-28T05:57:15.271Z,1002.5
2018-08-28T06:00:15.509Z,1002.6
2018-08-28T06:03:15.808Z,1002.6
2018-08-28T06:06:15.488Z,1002.7
2018-08-28T06:09:15.675Z,1002.7
2018-08-28T06:12:14.956Z,1002.7
2018-08-28T06:15:15.124Z,1002.7
2018-08-28T06:18:15.375Z,1002.7
2018-08-28T06:21:15.913Z,1002.7
2018-08-28T06:24:15.247Z,1002.8
2018-08-28T06:27:15.437Z,1002.8
2018-08-28T06:30:14.929Z,1002.8
2018-08-28T06:33:15.216Z,1002.8
2018-08-28T06:36:15.416Z,1002.8
2018-08-28T06:39:15.635Z,1002.9
2018-08-28T06:42:15.853Z,1002.9
2018-08-28T06:45:15.108Z,1002.9
2018-08-28T06:48:15.422Z,1002.8
2018-08-28T06:51:15.836Z,1002.9
2018-08-28T06:54:15.302Z,1002.9
2018-08-28T06:57:15.814Z,1003.0
2018-08-28T07:00:15.415Z,1002.9
2018-08-28T07:03:15.753Z,1002.9
2018-08-28T07:06:14.969Z,1002.9
2018-08-28T07:09:15.325Z,1002.9
2018-08-28T07:12:15.796Z,1002.8
2018-08-28T07:15:15.430Z,1002.9
2018-08-28T07:18:15.879Z,1002.9
2018-08-28T07:21:15.421Z,1002.8
2018-08-28T07:24:15.816Z,1002.9
2018-08-28T07:27:15.190Z,1002.9
2018-08-28T07:30:15.223Z,1003.0
2018-08-28T07:33:15.930Z,1003.0
2018-08-28T07:36:15.357Z,1003.0
2018-08-28T07:39:15.828Z,1002.9
2018-08-28T07:42:15.161Z,1002.9
2018-08-28T07:45:15.903Z,1002.9
2018-08-28T07:48:15.409Z,1002.9
2018-08-28T07:51:15.830Z,1002.9
2018-08-28T07:54:15.067Z,1002.9
2018-08-28T07:57:15.361Z,1002.9
2018-08-28T08:00:15.631Z,1002.9
2018-08-28T08:03:15.877Z,1002.9
2018-08-28T08:06:15.165Z,1002.9
2018-08-28T08:09:15.470Z,1003.0
2018-08-28T08:12:15.765Z,1003.0
2018-08-28T08:15:15.043Z,1003.0
2018-08-28T08:18:15.421Z,1003.0
2018-08-28T08:21:15.820Z,1003.0
2018-08-28T08:24:15.000Z,1003.1
2018-08-28T08:27:15.128Z,1003.0
2018-08-28T08:30:14.962Z,1003.0
2018-08-28T08:33:15.343Z,1003.0
2018-08-28T08:36:15.616Z,1003.0
2018-08-28T08:39:15.864Z,1003.0
2018-08-28T08:42:15.113Z,1003.0
2018-08-28T08:45:15.503Z,1003.0
2018-08-28T08:48:15.780Z,1003.0
2018-08-28T08:51:15.072Z,1002.9
2018-08-28T08:54:15.266Z,1003.0
2018-08-28T08:57:15.658Z,1003.0
2018-08-28T09:00:15.272Z,1003.0
2018-08-28T09:03:16.114Z,1003.0
2018-08-28T09:06:16.164Z,1002.9
2018-08-28T09:09:16.241Z,1002.9
2018-08-28T09:12:15.366Z,1002.9
2018-08-28T09:15:16.302Z,1002.9
2018-08-28T09:18:15.699Z,1002.9
2018-08-28T09:21:15.827Z,1002.8
2018-08-28T09:24:15.891Z,1002.8
2018-08-28T09:27:16.109Z,1002.8
2018-08-28T09:30:15.573Z,1002.7
2018-08-28T09:33:15.732Z,1002.8
2018-08-28T09:36:15.757Z,1002.7
2018-08-28T09:39:16.062Z,1002.7
2018-08-28T09:42:16.213Z,1002.7
2018-08-28T09:45:15.430Z,1002.7
2018-08-28T09:48:15.696Z,1002.7
2018-08-28T09:51:16.359Z,1002.8
2018-08-28T09:54:15.554Z,1002.8
2018-08-28T09:57:15.876Z,1002.7
2018-08-28T10:00:16.078Z,1002.7
2018-08-28T10:03:15.786Z,1002.7
2018-08-28T10:06:16.042Z,1002.7
2018-08-28T10:09:16.202Z,1002.6
2018-08-28T10:12:15.348Z,1002.6
2018-08-28T10:15:15.441Z,1002.5
2018-08-28T10:18:15.629Z,1002.5
2018-08-28T10:21:15.856Z,1002.5
2018-08-28T10:24:16.138Z,1002.4
2018-08-28T10:27:16.319Z,1002.4
2018-08-28T10:30:15.590Z,1002.4
2018-08-28T10:33:15.980Z,1002.4
2018-08-28T10:36:16.206Z,1002.3
2018-08-28T10:39:15.573Z,1002.3
2018-08-28T10:42:15.702Z,1002.2
2018-08-28T10:45:16.118Z,1002.3
2018-08-28T10:48:15.420Z,1002.1
2018-08-28T10:51:15.902Z,1002.2
2018-08-28T10:54:15.387Z,1002.2
2018-08-28T10:57:15.684Z,1002.1
2018-08-28T11:00:16.013Z,1002.1
2018-08-28T11:03:16.392Z,1002.1
2018-08-28T11:06:16.130Z,1002.0
2018-08-28T11:09:15.489Z,1002.1
2018-08-28T11:12:15.850Z,1002.1
2018-08-28T11:15:16.170Z,1002.0
2018-08-28T11:18:15.593Z,1002.0
2018-08-28T11:21:16.002Z,1002.0
2018-08-28T11:24:16.353Z,1002.0
2018-08-28T11:27:15.509Z,1002.0
2018-08-28T11:30:15.625Z,1001.9
2018-08-28T11:33:16.094Z,1001.9
2018-08-28T11:36:15.406Z,1001.8
2018-08-28T11:39:15.671Z,1001.8
2018-08-28T11:42:15.901Z,1001.8
2018-08-28T11:45:16.130Z,1001.9
2018-08-28T11:48:15.365Z,1001.7
2018-08-28T11:51:15.714Z,1001.8
2018-08-28T11:54:15.924Z,1001.8
2018-08-28T11:57:16.100Z,1001.7
2018-08-28T12:00:15.447Z,1001.7
2018-08-28T12:03:15.615Z,1001.7
2018-08-28T12:06:15.821Z,1001.6
2018-08-28T12:09:16.044Z,1001.6
2018-08-28T12:12:16.487Z,1001.6
2018-08-28T12:15:15.634Z,1001.6
2018-08-28T12:18:15.753Z,1001.5
2018-08-28T12:21:16.051Z,1001.5
2018-08-28T12:24:15.300Z,1001.5
2018-08-28T12:27:15.432Z,1001.5
2018-08-28T12:30:15.672Z,1001.5
2018-08-28T12:33:15.840Z,1001.5
2018-08-28T12:36:15.924Z,1001.4
2018-08-28T12:39:16.027Z,1001.4
2018-08-28T12:42:15.538Z,1001.3
2018-08-28T12:45:15.786Z,1001.2
2018-08-28T12:48:16.010Z,1001.2
2018-08-28T12:51:16.256Z,1001.2
2018-08-28T12:54:15.731Z,1001.2
2018-08-28T12:57:16.042Z,1001.2
2018-08-28T13:00:16.306Z,1001.2
2018-08-28T13:03:15.580Z,1001.2
2018-08-28T13:06:16.168Z,1001.1
2018-08-28T13:09:15.724Z,1001.1
2018-08-28T13:12:15.929Z,1001.0
2018-08-28T13:15:15.968Z,1001.0
2018-08-28T13:18:16.276Z,1001.0
2018-08-28T13:21:16.215Z,1001.0
2018-08-28T13:24:16.135Z,1000.9
2018-08-28T13:27:15.260Z,1000.9
2018-08-28T13:30:15.327Z,1000.8
2018-08-28T13:33:15.829Z,1000.8
2018-08-28T13:36:15.222Z,1000.7
2018-08-28T13:39:15.678Z,1000.8
2018-08-28T13:42:15.048Z,1000.7
2018-08-28T13:45:15.345Z,1000.6
2018-08-28T13:48:15.888Z,1000.6
2018-08-28T13:51:15.739Z,1000.6
2018-08-28T13:54:15.478Z,1000.5
2018-08-28T13:57:15.416Z,1000.5
2018-08-28T14:00:14.857Z,1000.5
2018-08-28T14:03:15.658Z,1000.5
2018-08-28T14:06:15.393Z,1000.5
2018-08-28T14:09:15.797Z,1000.5
2018-08-28T14:12:15.165Z,1000.5
2018-08-28T14:15:15.530Z,1000.4
2018-08-28T14:18:15.856Z,1000.4
2018-08-28T14:21:15.429Z,1000.5
2018-08-28T14:24:15.818Z,1000.5
2018-08-28T14:27:15.182Z,1000.4
2018-08-28T14:30:15.034Z,1000.4
2018-08-28T14:33:15.412Z,1000.3
2018-08-28T14:36:15.838Z,1000.2
2018-08-28T14:39:15.417Z,1000.3
2018-08-28T14:42:14.971Z,1000.2
2018-08-28T14:45:15.204Z,1000.2
2018-08-28T14:48:15.618Z,1000.2
2018-08-28T14:51:15.665Z,1000.2
2018-08-28T14:54:15.026Z,1000.2
2018-08-28T14:57:15.234Z,1000.2
2018-08-28T15:00:15.466Z,1000.1
2018-08-28T15:03:15.856Z,1000.1
2018-08-28T15:06:15.303Z,1000.0
2018-08-28T15:09:15.615Z,1000.0
2018-08-28T15:12:14.942Z,1000.0
2018-08-28T15:15:15.158Z,999.9
2018-08-28T15:18:15.548Z,999.9
2018-08-28T15:21:14.974Z,999.9
2018-08-28T15:24:15.252Z,999.9
2018-08-28T15:27:15.657Z,999.9
2018-08-28T15:30:15.136Z,999.9
2018-08-28T15:33:15.373Z,999.9
2018-08-28T15:36:15.643Z,999.9
2018-08-28T15:39:15.964Z,1000.0
2018-08-28T15:42:15.265Z,999.9
2018-08-28T15:45:15.522Z,999.9
2018-08-28T15:48:15.836Z,999.8
2018-08-28T15:51:15.615Z,999.8
2018-08-28T15:54:15.266Z,999.8
2018-08-28T15:57:15.846Z,999.7
2018-08-28T16:00:15.057Z,999.7
2018-08-28T16:03:15.429Z,999.7
2018-08-28T16:06:15.653Z,999.7
2018-08-28T16:09:14.900Z,999.7
2018-08-28T16:12:15.289Z,999.6
2018-08-28T16:15:15.634Z,999.6
2018-08-28T16:18:15.211Z,999.6
2018-08-28T16:21:15.737Z,999.5
2018-08-28T16:24:15.107Z,999.6
2018-08-28T16:27:15.455Z,999.5
2018-08-28T16:30:15.796Z,999.6
2018-08-28T16:33:14.910Z,999.5
2018-08-28T16:36:15.191Z,999.5
2018-08-28T16:39:15.444Z,999.4
2018-08-28T16:42:15.772Z,999.4
2018-08-28T16:45:15.105Z,999.4
2018-08-28T16:48:15.898Z,999.4
2018-08-28T16:51:15.382Z,999.3
2018-08-28T16:54:15.717Z,999.2
2018-08-28T16:57:14.917Z,999.2
2018-08-28T17:00:15.144Z,999.2
2018-08-28T17:03:15.390Z,999.2
2018-08-28T17:06:15.641Z,999.1
2018-08-28T17:09:14.890Z,999.2
2018-08-28T17:12:15.140Z,999.2
2018-08-28T17:15:15.737Z,999.2
2018-08-28T17:18:14.987Z,999.1
2018-08-28T17:21:15.408Z,999.1
2018-08-28T17:24:15.737Z,999.1
2018-08-28T17:27:15.191Z,999.1
2018-08-28T17:30:15.331Z,999.0
2018-08-28T17:33:15.497Z,999.0
2018-08-28T17:36:15.845Z,999.0
2018-08-28T17:39:15.057Z,999.1
2018-08-28T17:42:15.240Z,999.1
2018-08-28T17:45:15.482Z,999.0
2018-08-28T17:48:15.140Z,999.0
2018-08-28T17:51:15.291Z,999.0
2018-08-28T17:54:15.563Z,999.0
2018-08-28T17:57:15.766Z,999.0
2018-08-28T18:00:14.992Z,999.1
2018-08-28T18:03:15.264Z,999.1
2018-08-28T18:06:15.648Z,999.1
2018-08-28T18:09:15.878Z,999.0
2018-08-28T18:12:15.298Z,999.0
2018-08-28T18:15:15.552Z,999.0
2018-08-28T18:18:15.826Z,999.0
2018-08-28T18:21:15.051Z,999.0
2018-08-28T18:24:15.357Z,999.0
2018-08-28T18:27:15.611Z,999.0
2018-08-28T18:30:15.870Z,999.0
2018-08-28T18:33:15.110Z,998.9
2018-08-28T18:36:15.412Z,998.9
2018-08-28T18:39:15.743Z,998.9
2018-08-28T18:42:14.937Z,998.9
2018-08-28T18:45:15.008Z,999.0
2018-08-28T18:48:15.508Z,998.9
2018-08-28T18:51:15.791Z,998.9
2018-08-28T18:54:14.959Z,998.9
2018-08-28T18:57:15.155Z,998.9
2018-08-28T19:00:15.443Z,998.9
2018-08-28T19:03:15.002Z,998.9
2018-08-28T19:06:15.434Z,999.0
2018-08-28T19:09:15.707Z,998.9
2018-08-28T19:12:15.239Z,999.0
2018-08-28T19:15:15.446Z,999.0
2018-08-28T19:18:15.713Z,999.1
2018-08-28T19:21:16.010Z,999.1
2018-08-28T19:24:15.396Z,999.1
2018-08-28T19:27:15.669Z,999.1
2018-08-28T19:30:14.810Z,999.0
2018-08-28T19:33:15.079Z,999.0
2018-08-28T19:36:15.323Z,999.0
2018-08-28T19:39:15.647Z,999.0
2018-08-28T19:42:14.984Z,999.0
2018-08-28T19:45:16.253Z,999.0
2018-08-28T19:48:16.858Z,999.0
2018-08-28T19:51:15.064Z,999.0
2018-08-28T19:54:15.377Z,999.0
2018-08-28T19:57:15.596Z,999.0
2018-08-28T20:00:15.698Z,998.9
2018-08-28T20:03:14.984Z,998.9
2018-08-28T20:06:15.502Z,998.9
2018-08-28T20:09:15.768Z,998.8
2018-08-28T20:12:15.090Z,998.9
2018-08-28T20:15:15.639Z,998.8
2018-08-28T20:18:15.093Z,998.9
2018-08-28T20:21:15.360Z,998.9
2018-08-28T20:24:15.631Z,998.8
2018-08-28T20:27:15.035Z,998.9
2018-08-28T20:30:15.362Z,998.9
2018-08-28T20:33:15.728Z,998.8
2018-08-28T20:36:15.071Z,998.8
2018-08-28T20:39:15.320Z,998.8
2018-08-28T20:57:14.336Z,998.7
2018-08-28T21:00:15.777Z,998.7
2018-08-28T21:03:15.587Z,998.7
2018-08-28T21:06:15.037Z,998.6
2018-08-28T21:09:15.468Z,998.6
2018-08-28T21:12:14.989Z,998.6
2018-08-28T21:15:15.420Z,998.5
2018-08-28T21:18:15.794Z,998.5
2018-08-28T21:21:15.077Z,998.5
2018-08-28T21:24:15.544Z,998.5
2018-08-28T21:27:14.902Z,998.4
2018-08-28T21:30:15.370Z,998.4
2018-08-28T21:33:15.698Z,998.4
2018-08-28T21:36:15.084Z,998.4
2018-08-28T21:39:15.559Z,998.4
2018-08-28T21:42:15.154Z,998.3
2018-08-28T21:45:15.535Z,998.2
2018-08-28T21:48:15.922Z,998.2
2018-08-28T21:51:15.440Z,998.3
2018-08-28T21:54:14.899Z,998.2
2018-08-28T21:57:15.444Z,998.2
2018-08-28T22:00:15.825Z,998.1
2018-08-28T22:03:15.329Z,998.1
2018-08-28T22:06:16.792Z,998.0
2018-08-28T22:09:15.054Z,998.1
2018-08-28T22:12:15.402Z,998.0
2018-08-28T22:15:15.665Z,998.0
2018-08-28T22:18:15.231Z,997.9
2018-08-28T22:21:15.451Z,997.9
2018-08-28T22:24:15.704Z,998.0
2018-08-28T22:27:15.046Z,997.9
2018-08-28T22:30:15.581Z,998.0
2018-08-28T22:33:15.141Z,997.9
2018-08-28T22:36:15.572Z,998.0
2018-08-28T22:39:14.921Z,998.0
2018-08-28T22:42:15.344Z,997.9
2018-08-28T22:45:15.474Z,998.0
2018-08-28T22:48:14.890Z,998.0
2018-08-28T22:51:15.288Z,998.0
2018-08-28T22:54:15.702Z,998.0
2018-08-28T22:57:15.177Z,998.0
2018-08-28T23:00:15.702Z,997.9
2018-08-28T23:03:15.105Z,997.9
2018-08-28T23:06:15.363Z,997.9
2018-08-28T23:09:15.859Z,997.9
2018-08-28T23:12:15.226Z,997.9
2018-08-28T23:15:15.812Z,997.9
2018-08-28T23:18:15.863Z,997.8
2018-08-28T23:21:15.876Z,997.8
2018-08-28T23:24:15.430Z,997.8
2018-08-28T23:27:15.925Z,997.8
2018-08-28T23:30:15.790Z,997.8
2018-08-28T23:33:15.025Z,997.8
2018-08-28T23:36:15.260Z,997.7
2018-08-28T23:39:15.614Z,997.6
2018-08-28T23:42:15.798Z,997.6
2018-08-28T23:45:15.118Z,997.5
2018-08-28T23:48:15.327Z,997.5
2018-08-28T23:51:15.587Z,997.5
2018-08-28T23:54:15.853Z,997.5
2018-08-28T23:57:14.982Z,997.6
